AB776 CYQT-CYGK
Flight info
| Callsign | AB776 |
|---|---|
| Flight time | N/A |
| Altitude | 29000 |
| Route | SSM |
| Aircraft | PC12/L-SDFGRWY/S |
Departure
| Time | N/A |
|---|---|
| Airport | Thunder Bay International Airport (CYQT) |
Arrival
| Time | 2026-04-26 19:36 |
|---|---|
| Airport | Kingston Norman Rogers Airport (CYGK) |
| Time | Latitude | Longitude | Altitude | Speed | Heading |
|---|---|---|---|---|---|
| 2026-04-26 18:59 | 45.25580 | -79.93239 | 29225 ft | 302 kts | 111° |
| 2026-04-26 18:59 | 45.24774 | -79.90452 | 29224 ft | 302 kts | 111° |
| 2026-04-26 19:00 | 45.23189 | -79.84977 | 29219 ft | 302 kts | 111° |
| 2026-04-26 19:00 | 45.21591 | -79.79464 | 29223 ft | 302 kts | 111° |
| 2026-04-26 19:01 | 45.19991 | -79.73964 | 29222 ft | 302 kts | 111° |
| 2026-04-26 19:01 | 45.19087 | -79.70859 | 29215 ft | 302 kts | 111° |
| 2026-04-26 19:02 | 45.17563 | -79.65633 | 29211 ft | 302 kts | 111° |
| 2026-04-26 19:02 | 45.16217 | -79.61031 | 29211 ft | 302 kts | 111° |
| 2026-04-26 19:03 | 45.14350 | -79.54656 | 29210 ft | 301 kts | 111° |
| 2026-04-26 19:03 | 45.12741 | -79.49174 | 29210 ft | 301 kts | 111° |
| 2026-04-26 19:04 | 45.11131 | -79.43704 | 29210 ft | 301 kts | 111° |
| 2026-04-26 19:04 | 45.09518 | -79.38235 | 29207 ft | 301 kts | 111° |
| 2026-04-26 19:05 | 45.07093 | -79.30033 | 29208 ft | 301 kts | 111° |
| 2026-04-26 19:06 | 45.05471 | -79.24562 | 29206 ft | 301 kts | 111° |
| 2026-04-26 19:06 | 45.03848 | -79.19101 | 29208 ft | 301 kts | 111° |
| 2026-04-26 19:07 | 45.02223 | -79.13645 | 29208 ft | 301 kts | 111° |
| 2026-04-26 19:07 | 45.00596 | -79.08193 | 29212 ft | 301 kts | 111° |
| 2026-04-26 19:08 | 44.98966 | -79.02742 | 29213 ft | 301 kts | 111° |
| 2026-04-26 19:08 | 44.97342 | -78.97327 | 29213 ft | 301 kts | 111° |
| 2026-04-26 19:09 | 44.95707 | -78.91882 | 29217 ft | 301 kts | 111° |
| 2026-04-26 19:09 | 44.94067 | -78.86435 | 29215 ft | 302 kts | 111° |
| 2026-04-26 19:10 | 44.92425 | -78.80991 | 29214 ft | 302 kts | 111° |
| 2026-04-26 19:10 | 44.90779 | -78.75546 | 29211 ft | 302 kts | 111° |
| 2026-04-26 19:11 | 44.89131 | -78.70108 | 29215 ft | 302 kts | 111° |
| 2026-04-26 19:11 | 44.87478 | -78.64663 | 29213 ft | 302 kts | 111° |
| 2026-04-26 19:12 | 44.85822 | -78.59222 | 29216 ft | 302 kts | 111° |
| 2026-04-26 19:12 | 44.84164 | -78.53782 | 29213 ft | 302 kts | 111° |
| 2026-04-26 19:13 | 44.82501 | -78.48342 | 29216 ft | 302 kts | 111° |
| 2026-04-26 19:13 | 44.80835 | -78.42899 | 29215 ft | 302 kts | 111° |
| 2026-04-26 19:14 | 44.79167 | -78.37466 | 29213 ft | 303 kts | 111° |
| 2026-04-26 19:14 | 44.78323 | -78.34719 | 28793 ft | 308 kts | 111° |
| 2026-04-26 19:14 | 44.77466 | -78.31942 | 28252 ft | 310 kts | 111° |
| 2026-04-26 19:14 | 44.77175 | -78.30999 | 28067 ft | 311 kts | 111° |
| 2026-04-26 19:15 | 44.75746 | -78.26364 | 27195 ft | 310 kts | 110° |
| 2026-04-26 19:15 | 44.74888 | -78.23584 | 26680 ft | 310 kts | 110° |
| 2026-04-26 19:15 | 44.74032 | -78.20815 | 26179 ft | 308 kts | 110° |
| 2026-04-26 19:15 | 44.73177 | -78.18052 | 25685 ft | 307 kts | 110° |
| 2026-04-26 19:16 | 44.72327 | -78.15309 | 25200 ft | 306 kts | 110° |
| 2026-04-26 19:16 | 44.71480 | -78.12574 | 24717 ft | 304 kts | 110° |
| 2026-04-26 19:16 | 44.70638 | -78.09863 | 24252 ft | 303 kts | 110° |
| 2026-04-26 19:16 | 44.69795 | -78.07147 | 23784 ft | 303 kts | 110° |
| 2026-04-26 19:17 | 44.68959 | -78.04443 | 23243 ft | 300 kts | 108° |
| 2026-04-26 19:17 | 44.68358 | -78.01668 | 22706 ft | 295 kts | 98° |
| 2026-04-26 19:17 | 44.67934 | -77.98859 | 22175 ft | 292 kts | 96° |
| 2026-04-26 19:17 | 44.67496 | -77.96068 | 21653 ft | 294 kts | 99° |
| 2026-04-26 19:18 | 44.66933 | -77.93292 | 21171 ft | 296 kts | 102° |
| 2026-04-26 19:18 | 44.66332 | -77.90527 | 20695 ft | 295 kts | 102° |
| 2026-04-26 19:18 | 44.65766 | -77.87752 | 20222 ft | 297 kts | 101° |
| 2026-04-26 19:18 | 44.65214 | -77.84933 | 19762 ft | 301 kts | 101° |
| 2026-04-26 19:19 | 44.64646 | -77.82094 | 19306 ft | 303 kts | 101° |
| 2026-04-26 19:19 | 44.64067 | -77.79265 | 18858 ft | 300 kts | 101° |
| 2026-04-26 19:19 | 44.63502 | -77.76494 | 18408 ft | 298 kts | 101° |
| 2026-04-26 19:19 | 44.62932 | -77.73674 | 17885 ft | 296 kts | 101° |
| 2026-04-26 19:20 | 44.62380 | -77.70945 | 17394 ft | 294 kts | 101° |
| 2026-04-26 19:20 | 44.62192 | -77.70013 | 17227 ft | 293 kts | 101° |
| 2026-04-26 19:20 | 44.61281 | -77.65408 | 16416 ft | 296 kts | 101° |
| 2026-04-26 19:20 | 44.60715 | -77.62625 | 15940 ft | 296 kts | 102° |
| 2026-04-26 19:21 | 44.60149 | -77.59852 | 15474 ft | 296 kts | 102° |
| 2026-04-26 19:21 | 44.59574 | -77.57087 | 15011 ft | 293 kts | 102° |
| 2026-04-26 19:21 | 44.59012 | -77.54368 | 14551 ft | 289 kts | 102° |
| 2026-04-26 19:21 | 44.58460 | -77.51667 | 14104 ft | 287 kts | 102° |
| 2026-04-26 19:22 | 44.57913 | -77.48992 | 13609 ft | 285 kts | 102° |
| 2026-04-26 19:22 | 44.57367 | -77.46338 | 13112 ft | 283 kts | 102° |
| 2026-04-26 19:22 | 44.56822 | -77.43697 | 12626 ft | 280 kts | 102° |
| 2026-04-26 19:22 | 44.56281 | -77.41078 | 12138 ft | 278 kts | 102° |
| 2026-04-26 19:23 | 44.55927 | -77.39361 | 11823 ft | 277 kts | 102° |
| 2026-04-26 19:23 | 44.55394 | -77.36777 | 11354 ft | 274 kts | 102° |
| 2026-04-26 19:23 | 44.54865 | -77.34224 | 10923 ft | 272 kts | 102° |
| 2026-04-26 19:23 | 44.54340 | -77.31688 | 10513 ft | 270 kts | 102° |
| 2026-04-26 19:24 | 44.53818 | -77.29168 | 10098 ft | 268 kts | 103° |
| 2026-04-26 19:24 | 44.53298 | -77.26668 | 9659 ft | 266 kts | 103° |
| 2026-04-26 19:24 | 44.52266 | -77.21708 | 8770 ft | 264 kts | 103° |
| 2026-04-26 19:25 | 44.51756 | -77.19261 | 8339 ft | 261 kts | 103° |
| 2026-04-26 19:25 | 44.51420 | -77.17653 | 8057 ft | 259 kts | 103° |
| 2026-04-26 19:25 | 44.50746 | -77.14429 | 7485 ft | 256 kts | 103° |
| 2026-04-26 19:25 | 44.50248 | -77.12050 | 7072 ft | 253 kts | 103° |
| 2026-04-26 19:26 | 44.49755 | -77.09699 | 6651 ft | 250 kts | 103° |
| 2026-04-26 19:26 | 44.49267 | -77.07369 | 6217 ft | 249 kts | 104° |
| 2026-04-26 19:26 | 44.48781 | -77.05056 | 5785 ft | 246 kts | 104° |
| 2026-04-26 19:26 | 44.48303 | -77.02784 | 5350 ft | 241 kts | 104° |
| 2026-04-26 19:27 | 44.47831 | -77.00542 | 4916 ft | 239 kts | 105° |
| 2026-04-26 19:27 | 44.47365 | -76.98332 | 4467 ft | 233 kts | 105° |
| 2026-04-26 19:27 | 44.46923 | -76.96246 | 4105 ft | 217 kts | 105° |
| 2026-04-26 19:27 | 44.46495 | -76.94207 | 3779 ft | 221 kts | 105° |
| 2026-04-26 19:28 | 44.46053 | -76.92103 | 3506 ft | 227 kts | 105° |
| 2026-04-26 19:28 | 44.45607 | -76.90001 | 3494 ft | 222 kts | 105° |
| 2026-04-26 19:28 | 44.45174 | -76.87961 | 3494 ft | 218 kts | 105° |
| 2026-04-26 19:28 | 44.44746 | -76.85944 | 3483 ft | 214 kts | 105° |
| 2026-04-26 19:29 | 44.44322 | -76.83964 | 3490 ft | 212 kts | 105° |
| 2026-04-26 19:29 | 44.43899 | -76.81984 | 3491 ft | 214 kts | 105° |
| 2026-04-26 19:29 | 44.43471 | -76.79987 | 3488 ft | 214 kts | 105° |
| 2026-04-26 19:29 | 44.43042 | -76.77983 | 3488 ft | 216 kts | 105° |
| 2026-04-26 19:30 | 44.42616 | -76.75968 | 3489 ft | 217 kts | 105° |
| 2026-04-26 19:30 | 44.42188 | -76.73944 | 3498 ft | 219 kts | 105° |
| 2026-04-26 19:30 | 44.41757 | -76.71896 | 3495 ft | 220 kts | 105° |
| 2026-04-26 19:30 | 44.41469 | -76.70533 | 3499 ft | 221 kts | 105° |
| 2026-04-26 19:31 | 44.40888 | -76.67784 | 3502 ft | 221 kts | 104° |
| 2026-04-26 19:31 | 44.40452 | -76.65743 | 3362 ft | 219 kts | 105° |
| 2026-04-26 19:31 | 44.40048 | -76.64039 | 3134 ft | 210 kts | 114° |
| 2026-04-26 19:31 | 44.39027 | -76.62613 | 2852 ft | 204 kts | 150° |
| 2026-04-26 19:32 | 44.37713 | -76.61890 | 2591 ft | 202 kts | 165° |
| 2026-04-26 19:32 | 44.36341 | -76.61615 | 2345 ft | 202 kts | 173° |
| 2026-04-26 19:32 | 44.34937 | -76.61475 | 2085 ft | 199 kts | 175° |
| 2026-04-26 19:32 | 44.33626 | -76.61352 | 2084 ft | 183 kts | 174° |
| 2026-04-26 19:33 | 44.32375 | -76.61219 | 2092 ft | 180 kts | 174° |
| 2026-04-26 19:33 | 44.31119 | -76.61097 | 1949 ft | 177 kts | 174° |
| 2026-04-26 19:33 | 44.29932 | -76.60985 | 1701 ft | 163 kts | 174° |
| 2026-04-26 19:33 | 44.28828 | -76.60867 | 1485 ft | 154 kts | 174° |
| 2026-04-26 19:34 | 44.27808 | -76.60766 | 1280 ft | 139 kts | 175° |
| 2026-04-26 19:34 | 44.26907 | -76.60676 | 1081 ft | 120 kts | 175° |
| 2026-04-26 19:34 | 44.26181 | -76.60602 | 925 ft | 90 kts | 178° |
| 2026-04-26 19:34 | 44.25542 | -76.60536 | 807 ft | 96 kts | 176° |
| 2026-04-26 19:35 | 44.24877 | -76.60468 | 669 ft | 96 kts | 179° |
| 2026-04-26 19:35 | 44.24220 | -76.60422 | 526 ft | 92 kts | 175° |
| 2026-04-26 19:35 | 44.23586 | -76.60348 | 391 ft | 90 kts | 178° |
| 2026-04-26 19:35 | 44.23009 | -76.60290 | 302 ft | 74 kts | 178° |
| 2026-04-26 19:36 | 44.22618 | -76.60251 | 301 ft | 37 kts | 175° |
| 2026-04-26 19:36 | 44.22471 | -76.60237 | 301 ft | 28 kts | 176° |
| 2026-04-26 19:36 | 44.22254 | -76.60211 | 302 ft | 20 kts | 175° |
| 2026-04-26 19:36 | 44.22123 | -76.60201 | 301 ft | 18 kts | 176° |
| 2026-04-26 19:37 | 44.21999 | -76.60189 | 302 ft | 17 kts | 174° |
| 2026-04-26 19:37 | 44.21906 | -76.60147 | 301 ft | 12 kts | 120° |
| 2026-04-26 19:37 | 44.21869 | -76.60025 | 301 ft | 14 kts | 113° |
| 2026-04-26 19:37 | 44.21893 | -76.59915 | 301 ft | 8 kts | 59° |
| 2026-04-26 19:38 | 44.21860 | -76.59886 | 301 ft | 8 kts | 231° |
| 2026-04-26 19:38 | 44.21854 | -76.59896 | 302 ft | 0 kts | 232° |